SWA1833 KDTW-KFLL
Flight info
| Callsign | SWA1833 |
|---|---|
| Flight time | 2h 31m |
| Altitude | 34000 |
| Route | CLVIN3 STAZE VXV THRSR/N0460F350 Q79 ZPLEN TEEKY4 |
| Aircraft | B738/M-SDE2E3FGHIRWXY/LB1 |
Departure
| Time | 2026-05-03 22:36 |
|---|---|
| Airport | Detroit Metropolitan Wayne County Airport (KDTW) |
Arrival
| Time | 2026-05-04 01:08 |
|---|---|
| Airport | Fort Lauderdale Hollywood International Airport (KFLL) |
| Time | Latitude | Longitude | Altitude | Speed | Heading |
|---|---|---|---|---|---|
| 2026-05-03 21:51 | 42.22314 | -83.35146 | 648 ft | 0 kts | 169° |
| 2026-05-03 22:20 | 42.22319 | -83.35147 | 648 ft | 4 kts | 170° |
| 2026-05-03 22:21 | 42.22346 | -83.35151 | 650 ft | 4 kts | 185° |
| 2026-05-03 22:21 | 42.22372 | -83.35143 | 648 ft | 4 kts | 205° |
| 2026-05-03 22:21 | 42.22394 | -83.35124 | 649 ft | 4 kts | 225° |
| 2026-05-03 22:21 | 42.22410 | -83.35098 | 650 ft | 2 kts | 232° |
| 2026-05-03 22:22 | 42.22411 | -83.35097 | 650 ft | 0 kts | 231° |
| 2026-05-03 22:26 | 42.22410 | -83.35100 | 648 ft | 1 kts | 232° |
| 2026-05-03 22:26 | 42.22401 | -83.35123 | 648 ft | 4 kts | 245° |
| 2026-05-03 22:27 | 42.22386 | -83.35176 | 648 ft | 8 kts | 251° |
| 2026-05-03 22:27 | 42.22361 | -83.35255 | 649 ft | 10 kts | 239° |
| 2026-05-03 22:27 | 42.22305 | -83.35326 | 650 ft | 12 kts | 212° |
| 2026-05-03 22:27 | 42.22221 | -83.35325 | 648 ft | 14 kts | 152° |
| 2026-05-03 22:28 | 42.22132 | -83.35253 | 648 ft | 16 kts | 148° |
| 2026-05-03 22:28 | 42.22022 | -83.35252 | 648 ft | 17 kts | 206° |
| 2026-05-03 22:28 | 42.21919 | -83.35324 | 648 ft | 16 kts | 199° |
| 2026-05-03 22:28 | 42.21830 | -83.35329 | 648 ft | 2 kts | 157° |
| 2026-05-03 22:29 | 42.21825 | -83.35309 | 648 ft | 3 kts | 94° |
| 2026-05-03 22:29 | 42.21825 | -83.35270 | 648 ft | 5 kts | 89° |
| 2026-05-03 22:29 | 42.21826 | -83.35215 | 648 ft | 7 kts | 88° |
| 2026-05-03 22:29 | 42.21827 | -83.35146 | 648 ft | 8 kts | 89° |
| 2026-05-03 22:30 | 42.21828 | -83.35063 | 649 ft | 10 kts | 89° |
| 2026-05-03 22:30 | 42.21830 | -83.34963 | 649 ft | 12 kts | 88° |
| 2026-05-03 22:30 | 42.21834 | -83.34843 | 649 ft | 14 kts | 87° |
| 2026-05-03 22:30 | 42.21835 | -83.34818 | 649 ft | 3 kts | 88° |
| 2026-05-03 22:31 | 42.21835 | -83.34779 | 649 ft | 5 kts | 91° |
| 2026-05-03 22:31 | 42.21833 | -83.34718 | 649 ft | 7 kts | 91° |
| 2026-05-03 22:31 | 42.21834 | -83.34640 | 649 ft | 9 kts | 88° |
| 2026-05-03 22:31 | 42.21841 | -83.34546 | 650 ft | 11 kts | 69° |
| 2026-05-03 22:32 | 42.21899 | -83.34470 | 649 ft | 13 kts | 30° |
| 2026-05-03 22:32 | 42.21989 | -83.34405 | 649 ft | 16 kts | 28° |
| 2026-05-03 22:32 | 42.22093 | -83.34327 | 649 ft | 18 kts | 28° |
| 2026-05-03 22:32 | 42.22214 | -83.34238 | 648 ft | 21 kts | 28° |
| 2026-05-03 22:33 | 42.22349 | -83.34139 | 649 ft | 23 kts | 28° |
| 2026-05-03 22:33 | 42.22496 | -83.34030 | 651 ft | 25 kts | 29° |
| 2026-05-03 22:33 | 42.22656 | -83.33913 | 649 ft | 27 kts | 28° |
| 2026-05-03 22:33 | 42.22749 | -83.33845 | 649 ft | 14 kts | 29° |
| 2026-05-03 22:34 | 42.22834 | -83.33773 | 648 ft | 7 kts | 46° |
| 2026-05-03 22:34 | 42.22847 | -83.33746 | 650 ft | 0 kts | 69° |
| 2026-05-03 22:34 | 42.22848 | -83.33738 | 648 ft | 2 kts | 75° |
| 2026-05-03 22:34 | 42.22846 | -83.33703 | 648 ft | 5 kts | 107° |
| 2026-05-03 22:35 | 42.22826 | -83.33654 | 649 ft | 7 kts | 126° |
| 2026-05-03 22:35 | 42.22782 | -83.33653 | 649 ft | 7 kts | 205° |
| 2026-05-03 22:35 | 42.22746 | -83.33679 | 650 ft | 27 kts | 208° |
| 2026-05-03 22:35 | 42.22376 | -83.33953 | 651 ft | 93 kts | 208° |
| 2026-05-03 22:36 | 42.21643 | -83.34502 | 655 ft | 146 kts | 210° |
| 2026-05-03 22:36 | 42.20663 | -83.35195 | 1006 ft | 166 kts | 213° |
| 2026-05-03 22:36 | 42.19724 | -83.35949 | 2109 ft | 148 kts | 211° |
| 2026-05-03 22:36 | 42.18773 | -83.36422 | 2970 ft | 148 kts | 202° |
| 2026-05-03 22:37 | 42.17736 | -83.36845 | 3453 ft | 164 kts | 203° |
| 2026-05-03 22:37 | 42.16619 | -83.37342 | 4050 ft | 172 kts | 204° |
| 2026-05-03 22:37 | 42.15484 | -83.37891 | 4724 ft | 174 kts | 206° |
| 2026-05-03 22:37 | 42.14323 | -83.38481 | 5231 ft | 186 kts | 204° |
| 2026-05-03 22:38 | 42.12963 | -83.39034 | 5269 ft | 222 kts | 197° |
| 2026-05-03 22:38 | 42.11371 | -83.39467 | 5591 ft | 243 kts | 198° |
| 2026-05-03 22:38 | 42.09700 | -83.40011 | 6264 ft | 248 kts | 199° |
| 2026-05-03 22:38 | 42.08008 | -83.40609 | 6764 ft | 254 kts | 200° |
| 2026-05-03 22:39 | 42.06291 | -83.41193 | 6983 ft | 256 kts | 198° |
| 2026-05-03 22:39 | 42.04549 | -83.41754 | 7004 ft | 259 kts | 198° |
| 2026-05-03 22:39 | 42.02800 | -83.42318 | 7004 ft | 258 kts | 198° |
| 2026-05-03 22:39 | 42.01058 | -83.42887 | 7002 ft | 257 kts | 198° |
| 2026-05-03 22:40 | 41.99320 | -83.43459 | 7003 ft | 256 kts | 198° |
| 2026-05-03 22:40 | 41.97590 | -83.44029 | 7025 ft | 256 kts | 199° |
| 2026-05-03 22:40 | 41.95877 | -83.44545 | 7022 ft | 259 kts | 191° |
| 2026-05-03 22:40 | 41.94034 | -83.44444 | 7239 ft | 270 kts | 179° |
| 2026-05-03 22:41 | 41.92159 | -83.44154 | 7999 ft | 271 kts | 179° |
| 2026-05-03 22:41 | 41.90275 | -83.43872 | 8749 ft | 274 kts | 179° |
| 2026-05-03 22:41 | 41.88363 | -83.43596 | 9441 ft | 279 kts | 180° |
| 2026-05-03 22:41 | 41.86418 | -83.43321 | 10086 ft | 284 kts | 179° |
| 2026-05-03 22:42 | 41.84397 | -83.43044 | 10380 ft | 303 kts | 179° |
| 2026-05-03 22:42 | 41.82228 | -83.42750 | 10549 ft | 324 kts | 179° |
| 2026-05-03 22:42 | 41.80705 | -83.42542 | 10667 ft | 338 kts | 179° |
| 2026-05-03 22:42 | 41.78293 | -83.42212 | 10831 ft | 357 kts | 178° |
| 2026-05-03 22:43 | 41.75790 | -83.41869 | 11247 ft | 367 kts | 178° |
| 2026-05-03 22:43 | 41.73231 | -83.41519 | 11833 ft | 372 kts | 178° |
| 2026-05-03 22:43 | 41.70649 | -83.41374 | 12436 ft | 371 kts | 191° |
| 2026-05-03 22:43 | 41.68187 | -83.42317 | 13078 ft | 368 kts | 204° |
| 2026-05-03 22:44 | 41.65752 | -83.43488 | 13695 ft | 374 kts | 204° |
| 2026-05-03 22:44 | 41.63277 | -83.44641 | 14274 ft | 379 kts | 203° |
| 2026-05-03 22:44 | 41.60773 | -83.45788 | 14885 ft | 383 kts | 203° |
| 2026-05-03 22:44 | 41.58233 | -83.46941 | 15498 ft | 387 kts | 203° |
| 2026-05-03 22:45 | 41.55669 | -83.48100 | 16103 ft | 391 kts | 203° |
| 2026-05-03 22:45 | 41.53068 | -83.49274 | 16706 ft | 395 kts | 203° |
| 2026-05-03 22:45 | 41.50450 | -83.50455 | 17298 ft | 399 kts | 203° |
| 2026-05-03 22:45 | 41.47840 | -83.51631 | 17897 ft | 403 kts | 203° |
| 2026-05-03 22:46 | 41.45160 | -83.52838 | 18441 ft | 408 kts | 203° |
| 2026-05-03 22:46 | 41.42467 | -83.54050 | 18965 ft | 410 kts | 204° |
| 2026-05-03 22:46 | 41.39753 | -83.55270 | 19516 ft | 413 kts | 204° |
| 2026-05-03 22:46 | 41.37024 | -83.56496 | 20034 ft | 415 kts | 204° |
| 2026-05-03 22:47 | 41.34278 | -83.57729 | 20577 ft | 417 kts | 204° |
| 2026-05-03 22:47 | 41.31515 | -83.58968 | 21093 ft | 420 kts | 204° |
| 2026-05-03 22:47 | 41.28737 | -83.60213 | 21587 ft | 423 kts | 204° |
| 2026-05-03 22:47 | 41.25935 | -83.61467 | 22067 ft | 426 kts | 204° |
| 2026-05-03 22:48 | 41.23122 | -83.62725 | 22547 ft | 429 kts | 204° |
| 2026-05-03 22:48 | 41.20285 | -83.63993 | 23014 ft | 431 kts | 205° |
| 2026-05-03 22:48 | 41.17423 | -83.65270 | 23478 ft | 434 kts | 205° |
| 2026-05-03 22:48 | 41.14556 | -83.66549 | 23876 ft | 436 kts | 205° |
| 2026-05-03 22:49 | 41.11679 | -83.67830 | 24294 ft | 437 kts | 205° |
| 2026-05-03 22:49 | 41.08792 | -83.69115 | 24706 ft | 439 kts | 205° |
| 2026-05-03 22:49 | 41.05891 | -83.70404 | 25089 ft | 440 kts | 205° |
| 2026-05-03 22:49 | 41.02981 | -83.71698 | 25466 ft | 442 kts | 205° |
| 2026-05-03 22:50 | 41.00093 | -83.72980 | 25829 ft | 444 kts | 205° |
| 2026-05-03 22:50 | 40.97157 | -83.74282 | 26190 ft | 446 kts | 205° |
| 2026-05-03 22:50 | 40.94210 | -83.75588 | 26518 ft | 447 kts | 206° |
| 2026-05-03 22:50 | 40.91261 | -83.76894 | 26879 ft | 448 kts | 206° |
| 2026-05-03 22:51 | 40.88291 | -83.78208 | 27211 ft | 450 kts | 206° |
| 2026-05-03 22:51 | 40.85316 | -83.79523 | 27538 ft | 452 kts | 206° |
| 2026-05-03 22:51 | 40.82323 | -83.80844 | 27850 ft | 454 kts | 206° |
| 2026-05-03 22:51 | 40.79324 | -83.82168 | 28177 ft | 456 kts | 206° |
| 2026-05-03 22:52 | 40.76315 | -83.83493 | 28620 ft | 455 kts | 206° |
| 2026-05-03 22:52 | 40.73322 | -83.84808 | 29099 ft | 452 kts | 206° |
| 2026-05-03 22:52 | 40.70346 | -83.86116 | 29563 ft | 450 kts | 206° |
| 2026-05-03 22:52 | 40.67369 | -83.87425 | 29972 ft | 450 kts | 206° |
| 2026-05-03 22:53 | 40.64400 | -83.88730 | 30326 ft | 449 kts | 206° |
| 2026-05-03 22:53 | 40.61437 | -83.90031 | 30658 ft | 449 kts | 207° |
| 2026-05-03 22:53 | 40.58479 | -83.91330 | 30961 ft | 448 kts | 207° |
| 2026-05-03 22:53 | 40.55510 | -83.92632 | 31234 ft | 449 kts | 207° |
| 2026-05-03 22:54 | 40.52541 | -83.93932 | 31569 ft | 449 kts | 207° |
| 2026-05-03 22:54 | 40.49583 | -83.95225 | 31924 ft | 448 kts | 207° |
| 2026-05-03 22:54 | 40.46623 | -83.96518 | 32273 ft | 447 kts | 207° |
| 2026-05-03 22:54 | 40.43676 | -83.97804 | 32566 ft | 447 kts | 207° |
| 2026-05-03 22:55 | 40.40725 | -83.99092 | 32859 ft | 447 kts | 207° |
| 2026-05-03 22:55 | 40.37813 | -84.00362 | 33174 ft | 446 kts | 207° |
| 2026-05-03 22:55 | 40.34861 | -84.01647 | 33498 ft | 446 kts | 207° |
| 2026-05-03 22:55 | 40.31920 | -84.02926 | 33752 ft | 445 kts | 208° |
| 2026-05-03 22:56 | 40.28963 | -84.04178 | 34003 ft | 450 kts | 205° |
| 2026-05-03 22:56 | 40.25797 | -84.04828 | 34039 ft | 470 kts | 193° |
| 2026-05-03 22:56 | 40.22504 | -84.04993 | 34044 ft | 475 kts | 191° |
| 2026-05-03 22:57 | 40.15923 | -84.05280 | 34024 ft | 468 kts | 193° |
| 2026-05-03 22:57 | 40.09458 | -84.05782 | 34018 ft | 464 kts | 193° |
| 2026-05-03 22:58 | 40.03009 | -84.06301 | 34043 ft | 465 kts | 193° |
| 2026-05-03 22:58 | 39.96549 | -84.06808 | 34054 ft | 465 kts | 193° |
| 2026-05-03 22:59 | 39.90071 | -84.07312 | 34038 ft | 467 kts | 193° |
| 2026-05-03 22:59 | 39.83580 | -84.07816 | 34034 ft | 468 kts | 193° |
| 2026-05-03 23:00 | 39.77108 | -84.08318 | 34040 ft | 469 kts | 193° |
| 2026-05-03 23:00 | 39.70572 | -84.08824 | 34025 ft | 471 kts | 193° |
| 2026-05-03 23:01 | 39.64011 | -84.09330 | 33981 ft | 472 kts | 193° |
| 2026-05-03 23:01 | 39.57451 | -84.09835 | 34001 ft | 473 kts | 193° |
| 2026-05-03 23:02 | 39.50879 | -84.10340 | 34016 ft | 473 kts | 193° |
| 2026-05-03 23:02 | 39.44306 | -84.10845 | 34025 ft | 473 kts | 193° |
| 2026-05-03 23:03 | 39.37744 | -84.11346 | 34025 ft | 472 kts | 193° |
| 2026-05-03 23:03 | 39.31191 | -84.11847 | 34060 ft | 471 kts | 193° |
| 2026-05-03 23:04 | 39.24653 | -84.12347 | 34062 ft | 470 kts | 193° |
| 2026-05-03 23:04 | 39.18130 | -84.12844 | 34033 ft | 469 kts | 193° |
| 2026-05-03 23:05 | 39.11672 | -84.13335 | 34040 ft | 467 kts | 193° |
| 2026-05-03 23:05 | 39.05181 | -84.13828 | 34052 ft | 466 kts | 193° |
| 2026-05-03 23:06 | 38.98699 | -84.14321 | 34054 ft | 465 kts | 193° |
| 2026-05-03 23:06 | 38.92238 | -84.14743 | 34051 ft | 468 kts | 189° |
| 2026-05-03 23:07 | 38.85674 | -84.14313 | 34057 ft | 475 kts | 185° |
| 2026-05-03 23:07 | 38.79128 | -84.13573 | 34055 ft | 475 kts | 185° |
| 2026-05-03 23:08 | 38.72545 | -84.12892 | 34031 ft | 474 kts | 185° |
| 2026-05-03 23:08 | 38.65977 | -84.12297 | 34056 ft | 474 kts | 186° |
| 2026-05-03 23:09 | 38.59395 | -84.11736 | 34069 ft | 474 kts | 186° |
| 2026-05-03 23:09 | 38.52791 | -84.11177 | 34059 ft | 476 kts | 186° |
| 2026-05-03 23:10 | 38.46184 | -84.10615 | 34062 ft | 476 kts | 186° |
| 2026-05-03 23:10 | 38.39566 | -84.10050 | 34064 ft | 477 kts | 186° |
| 2026-05-03 23:11 | 38.32924 | -84.09484 | 34067 ft | 478 kts | 186° |
| 2026-05-03 23:11 | 38.26327 | -84.08922 | 34070 ft | 478 kts | 186° |
| 2026-05-03 23:12 | 38.19687 | -84.08358 | 34079 ft | 478 kts | 186° |
| 2026-05-03 23:12 | 38.13039 | -84.07794 | 34083 ft | 478 kts | 186° |
| 2026-05-03 23:13 | 38.06386 | -84.07232 | 34168 ft | 480 kts | 186° |
| 2026-05-03 23:13 | 37.99704 | -84.06670 | 34139 ft | 480 kts | 185° |
| 2026-05-03 23:14 | 37.93099 | -84.06103 | 34076 ft | 471 kts | 185° |
| 2026-05-03 23:14 | 37.86598 | -84.05556 | 34077 ft | 471 kts | 185° |
| 2026-05-03 23:15 | 37.80185 | -84.05024 | 34028 ft | 473 kts | 185° |
| 2026-05-03 23:15 | 37.73619 | -84.04475 | 34073 ft | 473 kts | 185° |
| 2026-05-03 23:16 | 37.67047 | -84.03925 | 34081 ft | 472 kts | 185° |
| 2026-05-03 23:16 | 37.60523 | -84.03379 | 34080 ft | 472 kts | 185° |
| 2026-05-03 23:17 | 37.53974 | -84.02832 | 34071 ft | 470 kts | 185° |
| 2026-05-03 23:17 | 37.47450 | -84.02287 | 34074 ft | 469 kts | 185° |
| 2026-05-03 23:18 | 37.40942 | -84.01746 | 34082 ft | 467 kts | 185° |
| 2026-05-03 23:18 | 37.34462 | -84.01209 | 34081 ft | 466 kts | 185° |
| 2026-05-03 23:19 | 37.27997 | -84.00674 | 34081 ft | 464 kts | 184° |
| 2026-05-03 23:19 | 37.21562 | -84.00142 | 34075 ft | 463 kts | 184° |
| 2026-05-03 23:20 | 37.15129 | -83.99612 | 34074 ft | 463 kts | 184° |
| 2026-05-03 23:20 | 37.08748 | -83.99087 | 34075 ft | 463 kts | 184° |
| 2026-05-03 23:21 | 37.02311 | -83.98558 | 34069 ft | 463 kts | 184° |
| 2026-05-03 23:21 | 36.95883 | -83.98030 | 34079 ft | 463 kts | 184° |
| 2026-05-03 23:22 | 36.86205 | -83.97238 | 34085 ft | 465 kts | 184° |
| 2026-05-03 23:22 | 36.79739 | -83.96709 | 34076 ft | 464 kts | 184° |
| 2026-05-03 23:23 | 36.73327 | -83.96185 | 34076 ft | 465 kts | 184° |
| 2026-05-03 23:23 | 36.66869 | -83.95658 | 34086 ft | 466 kts | 184° |
| 2026-05-03 23:24 | 36.60386 | -83.95133 | 34088 ft | 466 kts | 184° |
| 2026-05-03 23:24 | 36.53909 | -83.94603 | 34059 ft | 466 kts | 183° |
| 2026-05-03 23:25 | 36.47449 | -83.94083 | 34089 ft | 464 kts | 183° |
| 2026-05-03 23:25 | 36.41182 | -83.93575 | 34077 ft | 465 kts | 183° |
| 2026-05-03 23:26 | 36.34771 | -83.93057 | 34080 ft | 464 kts | 183° |
| 2026-05-03 23:26 | 36.28327 | -83.92535 | 34068 ft | 464 kts | 183° |
| 2026-05-03 23:27 | 36.21880 | -83.92016 | 34077 ft | 464 kts | 183° |
| 2026-05-03 23:27 | 36.15428 | -83.91497 | 34088 ft | 464 kts | 183° |
| 2026-05-03 23:28 | 36.08982 | -83.90977 | 34081 ft | 463 kts | 182° |
| 2026-05-03 23:28 | 36.02583 | -83.90463 | 34086 ft | 459 kts | 182° |
| 2026-05-03 23:29 | 35.97293 | -83.90043 | 34094 ft | 458 kts | 182° |
| 2026-05-03 23:29 | 35.89915 | -83.89670 | 34081 ft | 451 kts | 191° |
| 2026-05-03 23:30 | 35.83825 | -83.90994 | 34088 ft | 443 kts | 198° |
| 2026-05-03 23:30 | 35.78800 | -83.92285 | 34090 ft | 444 kts | 198° |
| 2026-05-03 23:31 | 35.72736 | -83.93812 | 34097 ft | 446 kts | 198° |
| 2026-05-03 23:31 | 35.66640 | -83.95308 | 34094 ft | 448 kts | 198° |
| 2026-05-03 23:32 | 35.60499 | -83.96797 | 34088 ft | 449 kts | 198° |
| 2026-05-03 23:32 | 35.54352 | -83.98283 | 34093 ft | 451 kts | 197° |
| 2026-05-03 23:33 | 35.48231 | -83.99761 | 34095 ft | 451 kts | 197° |
| 2026-05-03 23:33 | 35.42059 | -84.01249 | 34102 ft | 452 kts | 197° |
| 2026-05-03 23:34 | 35.35892 | -84.02734 | 34114 ft | 452 kts | 197° |
| 2026-05-03 23:34 | 35.29707 | -84.04221 | 34103 ft | 452 kts | 197° |
| 2026-05-03 23:35 | 35.23532 | -84.05704 | 34110 ft | 452 kts | 197° |
| 2026-05-03 23:35 | 35.17358 | -84.07183 | 34105 ft | 453 kts | 197° |
| 2026-05-03 23:36 | 35.11221 | -84.08653 | 34113 ft | 452 kts | 197° |
| 2026-05-03 23:36 | 35.05054 | -84.10128 | 34105 ft | 451 kts | 196° |
| 2026-05-03 23:37 | 34.98892 | -84.11599 | 34114 ft | 450 kts | 196° |
| 2026-05-03 23:37 | 34.92740 | -84.13065 | 34122 ft | 450 kts | 196° |
| 2026-05-03 23:38 | 34.86585 | -84.14529 | 34122 ft | 450 kts | 196° |
| 2026-05-03 23:38 | 34.80431 | -84.15992 | 34109 ft | 451 kts | 195° |
| 2026-05-03 23:39 | 34.74308 | -84.17445 | 34132 ft | 452 kts | 195° |
| 2026-05-03 23:39 | 34.68117 | -84.18912 | 34107 ft | 453 kts | 195° |
| 2026-05-03 23:40 | 34.61910 | -84.20380 | 34120 ft | 454 kts | 195° |
| 2026-05-03 23:40 | 34.55700 | -84.21847 | 34103 ft | 455 kts | 195° |
| 2026-05-03 23:41 | 34.49475 | -84.23313 | 34111 ft | 456 kts | 195° |
| 2026-05-03 23:41 | 34.43237 | -84.24782 | 34098 ft | 456 kts | 195° |
| 2026-05-03 23:42 | 34.37042 | -84.26238 | 34104 ft | 457 kts | 195° |
| 2026-05-03 23:42 | 34.30806 | -84.27701 | 34099 ft | 456 kts | 195° |
| 2026-05-03 23:43 | 34.24590 | -84.29157 | 34102 ft | 454 kts | 195° |
| 2026-05-03 23:43 | 34.18354 | -84.30617 | 34104 ft | 458 kts | 195° |
| 2026-05-03 23:44 | 34.12070 | -84.32087 | 34105 ft | 462 kts | 195° |
| 2026-05-03 23:44 | 34.05744 | -84.33562 | 34096 ft | 458 kts | 195° |
| 2026-05-03 23:45 | 33.99565 | -84.34997 | 34101 ft | 449 kts | 195° |
| 2026-05-03 23:45 | 33.93410 | -84.36431 | 34117 ft | 451 kts | 195° |
| 2026-05-03 23:46 | 33.87267 | -84.37860 | 34094 ft | 453 kts | 195° |
| 2026-05-03 23:46 | 33.81060 | -84.39300 | 34108 ft | 454 kts | 195° |
| 2026-05-03 23:47 | 33.74865 | -84.40734 | 34104 ft | 453 kts | 195° |
| 2026-05-03 23:47 | 33.68689 | -84.42162 | 34104 ft | 451 kts | 195° |
| 2026-05-03 23:48 | 33.62406 | -84.42691 | 34119 ft | 457 kts | 179° |
| 2026-05-03 23:48 | 33.56174 | -84.40970 | 34122 ft | 463 kts | 166° |
| 2026-05-03 23:49 | 33.50091 | -84.38455 | 34100 ft | 461 kts | 166° |
| 2026-05-03 23:49 | 33.44045 | -84.35958 | 34134 ft | 458 kts | 166° |
| 2026-05-03 23:50 | 33.39041 | -84.33930 | 34134 ft | 456 kts | 167° |
| 2026-05-03 23:50 | 33.32046 | -84.31130 | 34139 ft | 454 kts | 167° |
| 2026-05-03 23:51 | 33.26051 | -84.28741 | 34133 ft | 454 kts | 167° |
| 2026-05-03 23:51 | 33.20130 | -84.26381 | 34120 ft | 453 kts | 168° |
| 2026-05-03 23:52 | 33.14073 | -84.23974 | 34114 ft | 453 kts | 168° |
| 2026-05-03 23:52 | 33.08131 | -84.21613 | 34113 ft | 452 kts | 168° |
| 2026-05-03 23:53 | 33.02152 | -84.19241 | 34098 ft | 452 kts | 168° |
| 2026-05-03 23:53 | 32.96181 | -84.16874 | 34113 ft | 451 kts | 168° |
| 2026-05-03 23:54 | 32.90219 | -84.14515 | 34118 ft | 450 kts | 168° |
| 2026-05-03 23:54 | 32.84269 | -84.12165 | 34114 ft | 450 kts | 168° |
| 2026-05-03 23:55 | 32.78366 | -84.09836 | 34112 ft | 449 kts | 168° |
| 2026-05-03 23:55 | 32.72425 | -84.07495 | 34110 ft | 448 kts | 169° |
| 2026-05-03 23:56 | 32.66508 | -84.05167 | 34104 ft | 448 kts | 169° |
| 2026-05-03 23:56 | 32.60592 | -84.02843 | 34108 ft | 447 kts | 169° |
| 2026-05-03 23:57 | 32.54684 | -84.00526 | 34111 ft | 447 kts | 169° |
| 2026-05-03 23:57 | 32.48785 | -83.98215 | 34115 ft | 447 kts | 169° |
| 2026-05-03 23:58 | 32.42885 | -83.95906 | 34106 ft | 446 kts | 169° |
| 2026-05-03 23:58 | 32.36986 | -83.93601 | 34111 ft | 445 kts | 169° |
| 2026-05-03 23:59 | 32.31139 | -83.91320 | 34102 ft | 445 kts | 169° |
| 2026-05-03 23:59 | 32.25262 | -83.89025 | 34106 ft | 444 kts | 170° |
| 2026-05-04 00:00 | 32.19397 | -83.86748 | 34075 ft | 443 kts | 170° |
| 2026-05-04 00:00 | 32.13579 | -83.84487 | 34107 ft | 442 kts | 171° |
| 2026-05-04 00:01 | 32.07736 | -83.82220 | 34112 ft | 442 kts | 171° |
| 2026-05-04 00:01 | 32.01890 | -83.79954 | 34112 ft | 442 kts | 171° |
| 2026-05-04 00:02 | 31.96049 | -83.77694 | 34111 ft | 442 kts | 171° |
| 2026-05-04 00:02 | 31.90199 | -83.75433 | 34088 ft | 442 kts | 171° |
| 2026-05-04 00:03 | 31.84351 | -83.73175 | 34106 ft | 442 kts | 171° |
| 2026-05-04 00:03 | 31.78493 | -83.70917 | 34117 ft | 443 kts | 171° |
| 2026-05-04 00:04 | 31.72674 | -83.68676 | 34113 ft | 443 kts | 171° |
| 2026-05-04 00:04 | 31.66804 | -83.66419 | 34114 ft | 444 kts | 171° |
| 2026-05-04 00:05 | 31.60917 | -83.64156 | 34111 ft | 444 kts | 171° |
| 2026-05-04 00:05 | 31.55035 | -83.61896 | 34121 ft | 445 kts | 171° |
| 2026-05-04 00:06 | 31.49179 | -83.59648 | 34127 ft | 446 kts | 171° |
| 2026-05-04 00:06 | 31.43281 | -83.57388 | 34129 ft | 446 kts | 171° |
| 2026-05-04 00:07 | 31.37382 | -83.55130 | 34130 ft | 447 kts | 171° |
| 2026-05-04 00:07 | 31.31469 | -83.52868 | 34110 ft | 446 kts | 172° |
| 2026-05-04 00:08 | 31.25558 | -83.50611 | 34119 ft | 446 kts | 172° |
| 2026-05-04 00:08 | 31.19691 | -83.48375 | 34122 ft | 446 kts | 172° |
| 2026-05-04 00:09 | 31.13783 | -83.46126 | 34118 ft | 446 kts | 172° |
| 2026-05-04 00:09 | 31.07874 | -83.43878 | 34118 ft | 446 kts | 172° |
| 2026-05-04 00:10 | 31.01969 | -83.41635 | 34099 ft | 446 kts | 172° |
| 2026-05-04 00:10 | 30.96070 | -83.39398 | 34106 ft | 446 kts | 172° |
| 2026-05-04 00:11 | 30.90166 | -83.37162 | 34113 ft | 446 kts | 172° |
| 2026-05-04 00:11 | 30.84260 | -83.34928 | 34112 ft | 446 kts | 172° |
| 2026-05-04 00:12 | 30.78347 | -83.32692 | 34084 ft | 447 kts | 172° |
| 2026-05-04 00:12 | 30.72429 | -83.30459 | 34104 ft | 447 kts | 172° |
| 2026-05-04 00:13 | 30.66564 | -83.27813 | 34119 ft | 457 kts | 165° |
| 2026-05-04 00:13 | 30.60846 | -83.24626 | 34120 ft | 460 kts | 164° |
| 2026-05-04 00:14 | 30.55074 | -83.21387 | 34120 ft | 460 kts | 165° |
| 2026-05-04 00:14 | 30.49288 | -83.18227 | 34120 ft | 460 kts | 165° |
| 2026-05-04 00:15 | 30.43473 | -83.15100 | 34099 ft | 460 kts | 165° |
| 2026-05-04 00:15 | 30.37663 | -83.11990 | 34114 ft | 460 kts | 165° |
| 2026-05-04 00:16 | 30.31855 | -83.08884 | 34114 ft | 459 kts | 165° |
| 2026-05-04 00:16 | 30.26039 | -83.05776 | 34115 ft | 459 kts | 165° |
| 2026-05-04 00:17 | 30.20270 | -83.02696 | 34065 ft | 459 kts | 166° |
| 2026-05-04 00:17 | 30.14480 | -82.99608 | 34093 ft | 458 kts | 166° |
| 2026-05-04 00:18 | 30.09619 | -82.97020 | 34111 ft | 458 kts | 166° |
| 2026-05-04 00:18 | 30.03861 | -82.93958 | 34105 ft | 459 kts | 166° |
| 2026-05-04 00:19 | 29.98062 | -82.90878 | 34100 ft | 459 kts | 166° |
| 2026-05-04 00:19 | 29.92248 | -82.87793 | 34090 ft | 459 kts | 166° |
| 2026-05-04 00:20 | 29.86451 | -82.84721 | 34092 ft | 459 kts | 166° |
| 2026-05-04 00:20 | 29.80643 | -82.81648 | 34093 ft | 460 kts | 166° |
| 2026-05-04 00:21 | 29.74858 | -82.78592 | 34094 ft | 461 kts | 166° |
| 2026-05-04 00:21 | 29.69031 | -82.75516 | 34079 ft | 460 kts | 166° |
| 2026-05-04 00:22 | 29.63199 | -82.72440 | 34096 ft | 461 kts | 166° |
| 2026-05-04 00:22 | 29.57376 | -82.69373 | 34087 ft | 460 kts | 167° |
| 2026-05-04 00:23 | 29.51560 | -82.66316 | 34086 ft | 460 kts | 167° |
| 2026-05-04 00:23 | 29.45741 | -82.63260 | 34093 ft | 460 kts | 167° |
| 2026-05-04 00:24 | 29.39914 | -82.60203 | 34086 ft | 460 kts | 167° |
| 2026-05-04 00:24 | 29.34097 | -82.57155 | 34086 ft | 460 kts | 167° |
| 2026-05-04 00:25 | 29.28287 | -82.54114 | 34086 ft | 457 kts | 167° |
| 2026-05-04 00:25 | 29.25420 | -82.52874 | 34068 ft | 438 kts | 180° |
| 2026-05-04 00:25 | 29.22537 | -82.52578 | 34106 ft | 416 kts | 191° |
| 2026-05-04 00:26 | 29.16758 | -82.52626 | 34086 ft | 415 kts | 192° |
| 2026-05-04 00:26 | 29.11014 | -82.52688 | 34084 ft | 415 kts | 191° |
| 2026-05-04 00:27 | 29.05235 | -82.52711 | 34082 ft | 415 kts | 191° |
| 2026-05-04 00:27 | 28.99452 | -82.52713 | 34074 ft | 415 kts | 191° |
| 2026-05-04 00:28 | 28.93685 | -82.52710 | 34087 ft | 414 kts | 191° |
| 2026-05-04 00:28 | 28.87933 | -82.52707 | 34075 ft | 415 kts | 191° |
| 2026-05-04 00:29 | 28.82163 | -82.52703 | 34083 ft | 415 kts | 191° |
| 2026-05-04 00:29 | 28.76391 | -82.52701 | 34072 ft | 415 kts | 191° |
| 2026-05-04 00:30 | 28.70620 | -82.52697 | 34064 ft | 414 kts | 192° |
| 2026-05-04 00:30 | 28.64854 | -82.52694 | 34070 ft | 414 kts | 192° |
| 2026-05-04 00:31 | 28.59094 | -82.52691 | 34065 ft | 414 kts | 192° |
| 2026-05-04 00:31 | 28.53371 | -82.52688 | 34065 ft | 414 kts | 192° |
| 2026-05-04 00:32 | 28.47610 | -82.52685 | 34064 ft | 414 kts | 192° |
| 2026-05-04 00:32 | 28.41838 | -82.52682 | 34048 ft | 413 kts | 192° |
| 2026-05-04 00:33 | 28.33248 | -82.52678 | 34063 ft | 413 kts | 192° |
| 2026-05-04 00:34 | 28.27483 | -82.52676 | 34057 ft | 414 kts | 192° |
| 2026-05-04 00:34 | 28.21709 | -82.52673 | 34057 ft | 415 kts | 192° |
| 2026-05-04 00:35 | 28.15919 | -82.52670 | 34010 ft | 416 kts | 192° |
| 2026-05-04 00:35 | 28.10133 | -82.52666 | 34054 ft | 416 kts | 192° |
| 2026-05-04 00:36 | 28.04338 | -82.52664 | 34068 ft | 417 kts | 192° |
| 2026-05-04 00:36 | 27.98515 | -82.52298 | 34054 ft | 441 kts | 177° |
| 2026-05-04 00:37 | 27.92589 | -82.50169 | 34068 ft | 448 kts | 174° |
| 2026-05-04 00:37 | 27.86655 | -82.47979 | 34042 ft | 448 kts | 175° |
| 2026-05-04 00:38 | 27.80718 | -82.45843 | 34042 ft | 447 kts | 175° |
| 2026-05-04 00:38 | 27.74779 | -82.43738 | 34047 ft | 447 kts | 175° |
| 2026-05-04 00:39 | 27.68840 | -82.41640 | 34048 ft | 447 kts | 175° |
| 2026-05-04 00:39 | 27.62932 | -82.39554 | 34037 ft | 448 kts | 175° |
| 2026-05-04 00:40 | 27.57000 | -82.37459 | 34047 ft | 447 kts | 174° |
| 2026-05-04 00:40 | 27.51065 | -82.35365 | 34055 ft | 446 kts | 174° |
| 2026-05-04 00:41 | 27.45133 | -82.33276 | 34050 ft | 446 kts | 174° |
| 2026-05-04 00:41 | 27.39213 | -82.31193 | 34055 ft | 446 kts | 174° |
| 2026-05-04 00:41 | 27.36281 | -82.29959 | 34042 ft | 460 kts | 166° |
| 2026-05-04 00:42 | 27.33440 | -82.28244 | 34063 ft | 466 kts | 162° |
| 2026-05-04 00:42 | 27.27833 | -82.24517 | 34055 ft | 467 kts | 161° |
| 2026-05-04 00:43 | 27.22227 | -82.20833 | 34049 ft | 465 kts | 162° |
| 2026-05-04 00:43 | 27.16643 | -82.17270 | 34055 ft | 464 kts | 162° |
| 2026-05-04 00:44 | 27.11009 | -82.13713 | 33705 ft | 469 kts | 162° |
| 2026-05-04 00:44 | 27.08166 | -82.11921 | 33102 ft | 468 kts | 162° |
| 2026-05-04 00:44 | 27.05332 | -82.10127 | 32426 ft | 468 kts | 161° |
| 2026-05-04 00:44 | 27.02498 | -82.08334 | 31735 ft | 468 kts | 161° |
| 2026-05-04 00:45 | 26.99648 | -82.06534 | 31012 ft | 470 kts | 161° |
| 2026-05-04 00:45 | 26.96793 | -82.04714 | 30247 ft | 476 kts | 158° |
| 2026-05-04 00:45 | 26.94471 | -82.02627 | 29609 ft | 494 kts | 142° |
| 2026-05-04 00:45 | 26.92146 | -81.99800 | 29055 ft | 491 kts | 140° |
| 2026-05-04 00:46 | 26.89857 | -81.96978 | 28464 ft | 487 kts | 141° |
| 2026-05-04 00:46 | 26.87576 | -81.94201 | 27912 ft | 482 kts | 141° |
| 2026-05-04 00:46 | 26.85300 | -81.91477 | 27362 ft | 477 kts | 141° |
| 2026-05-04 00:46 | 26.83031 | -81.88794 | 26840 ft | 472 kts | 142° |
| 2026-05-04 00:47 | 26.80785 | -81.86150 | 26474 ft | 464 kts | 142° |
| 2026-05-04 00:47 | 26.78596 | -81.83570 | 26295 ft | 451 kts | 142° |
| 2026-05-04 00:47 | 26.76458 | -81.81051 | 26028 ft | 442 kts | 142° |
| 2026-05-04 00:47 | 26.74334 | -81.78574 | 25551 ft | 439 kts | 142° |
| 2026-05-04 00:48 | 26.72220 | -81.76122 | 25118 ft | 436 kts | 142° |
| 2026-05-04 00:48 | 26.70147 | -81.73720 | 24649 ft | 433 kts | 142° |
| 2026-05-04 00:48 | 26.68063 | -81.71302 | 24202 ft | 431 kts | 142° |
| 2026-05-04 00:48 | 26.65965 | -81.68866 | 23734 ft | 428 kts | 142° |
| 2026-05-04 00:49 | 26.63905 | -81.66474 | 23217 ft | 426 kts | 142° |
| 2026-05-04 00:49 | 26.61914 | -81.64024 | 22666 ft | 428 kts | 137° |
| 2026-05-04 00:49 | 26.60110 | -81.61433 | 22209 ft | 427 kts | 134° |
| 2026-05-04 00:49 | 26.58365 | -81.58754 | 21722 ft | 425 kts | 133° |
| 2026-05-04 00:50 | 26.56646 | -81.56085 | 21211 ft | 422 kts | 133° |
| 2026-05-04 00:50 | 26.54901 | -81.53407 | 20736 ft | 419 kts | 133° |
| 2026-05-04 00:50 | 26.53195 | -81.50826 | 20270 ft | 417 kts | 134° |
| 2026-05-04 00:50 | 26.51466 | -81.48241 | 19790 ft | 414 kts | 134° |
| 2026-05-04 00:51 | 26.49740 | -81.45678 | 19320 ft | 413 kts | 134° |
| 2026-05-04 00:51 | 26.48017 | -81.43127 | 18838 ft | 411 kts | 134° |
| 2026-05-04 00:51 | 26.46299 | -81.40583 | 18369 ft | 410 kts | 133° |
| 2026-05-04 00:51 | 26.44585 | -81.38047 | 17836 ft | 408 kts | 133° |
| 2026-05-04 00:52 | 26.42883 | -81.35527 | 17352 ft | 405 kts | 133° |
| 2026-05-04 00:52 | 26.41192 | -81.33026 | 16880 ft | 402 kts | 133° |
| 2026-05-04 00:52 | 26.39467 | -81.30598 | 16413 ft | 397 kts | 135° |
| 2026-05-04 00:52 | 26.37694 | -81.28249 | 15968 ft | 393 kts | 136° |
| 2026-05-04 00:53 | 26.35928 | -81.25938 | 15524 ft | 391 kts | 136° |
| 2026-05-04 00:53 | 26.34179 | -81.23637 | 15082 ft | 388 kts | 135° |
| 2026-05-04 00:53 | 26.32443 | -81.21333 | 14645 ft | 386 kts | 135° |
| 2026-05-04 00:53 | 26.30727 | -81.19043 | 14200 ft | 384 kts | 134° |
| 2026-05-04 00:54 | 26.29024 | -81.16769 | 13736 ft | 382 kts | 134° |
| 2026-05-04 00:54 | 26.27320 | -81.14508 | 13264 ft | 379 kts | 134° |
| 2026-05-04 00:54 | 26.25654 | -81.12314 | 12823 ft | 375 kts | 134° |
| 2026-05-04 00:54 | 26.23963 | -81.10094 | 12380 ft | 372 kts | 134° |
| 2026-05-04 00:55 | 26.22298 | -81.07908 | 11953 ft | 369 kts | 134° |
| 2026-05-04 00:55 | 26.20643 | -81.05732 | 11530 ft | 366 kts | 134° |
| 2026-05-04 00:55 | 26.19007 | -81.03581 | 11112 ft | 363 kts | 134° |
| 2026-05-04 00:55 | 26.17376 | -81.01439 | 10691 ft | 361 kts | 134° |
| 2026-05-04 00:56 | 26.15763 | -80.99315 | 10284 ft | 358 kts | 132° |
| 2026-05-04 00:56 | 26.14532 | -80.96904 | 9886 ft | 361 kts | 108° |
| 2026-05-04 00:56 | 26.14014 | -80.94235 | 9921 ft | 345 kts | 102° |
| 2026-05-04 00:56 | 26.13610 | -80.91654 | 9858 ft | 333 kts | 101° |
| 2026-05-04 00:57 | 26.13226 | -80.89153 | 9755 ft | 322 kts | 101° |
| 2026-05-04 00:57 | 26.12844 | -80.86737 | 9679 ft | 312 kts | 102° |
| 2026-05-04 00:57 | 26.12463 | -80.84398 | 9562 ft | 303 kts | 102° |
| 2026-05-04 00:57 | 26.12082 | -80.82102 | 9320 ft | 300 kts | 102° |
| 2026-05-04 00:58 | 26.11706 | -80.79847 | 9042 ft | 299 kts | 102° |
| 2026-05-04 00:58 | 26.11356 | -80.77569 | 8773 ft | 298 kts | 100° |
| 2026-05-04 00:58 | 26.11042 | -80.75299 | 8499 ft | 296 kts | 100° |
| 2026-05-04 00:58 | 26.10735 | -80.73044 | 8238 ft | 294 kts | 100° |
| 2026-05-04 00:59 | 26.10430 | -80.70800 | 7984 ft | 292 kts | 100° |
| 2026-05-04 00:59 | 26.10126 | -80.68571 | 7751 ft | 290 kts | 99° |
| 2026-05-04 00:59 | 26.09822 | -80.66358 | 7478 ft | 289 kts | 99° |
| 2026-05-04 00:59 | 26.09517 | -80.64150 | 7240 ft | 287 kts | 99° |
| 2026-05-04 01:00 | 26.09221 | -80.62013 | 7206 ft | 272 kts | 100° |
| 2026-05-04 01:00 | 26.08941 | -80.59991 | 7104 ft | 258 kts | 100° |
| 2026-05-04 01:00 | 26.08673 | -80.58066 | 7003 ft | 245 kts | 100° |
| 2026-05-04 01:00 | 26.08418 | -80.56236 | 6900 ft | 234 kts | 100° |
| 2026-05-04 01:01 | 26.08174 | -80.54464 | 6662 ft | 230 kts | 98° |
| 2026-05-04 01:01 | 26.08044 | -80.52708 | 6413 ft | 227 kts | 95° |
| 2026-05-04 01:01 | 26.07981 | -80.50910 | 5856 ft | 240 kts | 93° |
| 2026-05-04 01:01 | 26.07949 | -80.49068 | 5525 ft | 244 kts | 92° |
| 2026-05-04 01:02 | 26.07930 | -80.47188 | 5239 ft | 243 kts | 91° |
| 2026-05-04 01:02 | 26.07913 | -80.45312 | 4921 ft | 242 kts | 91° |
| 2026-05-04 01:02 | 26.07898 | -80.43447 | 4590 ft | 238 kts | 91° |
| 2026-05-04 01:02 | 26.07883 | -80.41662 | 4291 ft | 223 kts | 91° |
| 2026-05-04 01:03 | 26.07870 | -80.40018 | 4006 ft | 204 kts | 91° |
| 2026-05-04 01:03 | 26.07858 | -80.38505 | 3740 ft | 189 kts | 91° |
| 2026-05-04 01:03 | 26.07846 | -80.37105 | 3512 ft | 173 kts | 91° |
| 2026-05-04 01:03 | 26.07836 | -80.35804 | 3297 ft | 166 kts | 91° |
| 2026-05-04 01:04 | 26.07826 | -80.34532 | 3095 ft | 163 kts | 91° |
| 2026-05-04 01:04 | 26.07816 | -80.33265 | 2891 ft | 163 kts | 91° |
| 2026-05-04 01:04 | 26.07809 | -80.32427 | 2748 ft | 164 kts | 91° |
| 2026-05-04 01:04 | 26.07799 | -80.31166 | 2532 ft | 162 kts | 91° |
| 2026-05-04 01:05 | 26.07790 | -80.29932 | 2330 ft | 159 kts | 90° |
| 2026-05-04 01:05 | 26.07781 | -80.28711 | 2126 ft | 157 kts | 90° |
| 2026-05-04 01:05 | 26.07772 | -80.27502 | 1925 ft | 156 kts | 90° |
| 2026-05-04 01:05 | 26.07763 | -80.26305 | 1721 ft | 154 kts | 89° |
| 2026-05-04 01:06 | 26.07755 | -80.25112 | 1517 ft | 154 kts | 89° |
| 2026-05-04 01:06 | 26.07746 | -80.23919 | 1311 ft | 154 kts | 89° |
| 2026-05-04 01:06 | 26.07738 | -80.22729 | 1116 ft | 153 kts | 89° |
| 2026-05-04 01:06 | 26.07729 | -80.21541 | 914 ft | 154 kts | 89° |
| 2026-05-04 01:07 | 26.07721 | -80.20347 | 724 ft | 155 kts | 89° |
| 2026-05-04 01:07 | 26.07713 | -80.19127 | 530 ft | 160 kts | 89° |
| 2026-05-04 01:07 | 26.07705 | -80.17879 | 297 ft | 161 kts | 88° |
| 2026-05-04 01:07 | 26.07697 | -80.16648 | 68 ft | 158 kts | 89° |
| 2026-05-04 01:08 | 26.07692 | -80.15502 | 15 ft | 131 kts | 90° |
| 2026-05-04 01:08 | 26.07685 | -80.14923 | 21 ft | 30 kts | 90° |
| 2026-05-04 01:08 | 26.07669 | -80.14733 | 24 ft | 24 kts | 102° |
| 2026-05-04 01:08 | 26.07613 | -80.14564 | 25 ft | 23 kts | 117° |
| 2026-05-04 01:09 | 26.07594 | -80.14524 | 25 ft | 0 kts | 117° |
| 2026-05-04 01:09 | 26.07592 | -80.14520 | 24 ft | 2 kts | 117° |
| 2026-05-04 01:09 | 26.07581 | -80.14495 | 26 ft | 5 kts | 116° |
| 2026-05-04 01:09 | 26.07565 | -80.14444 | 25 ft | 9 kts | 101° |
| 2026-05-04 01:10 | 26.07565 | -80.14364 | 25 ft | 12 kts | 91° |
| 2026-05-04 01:10 | 26.07558 | -80.14256 | 24 ft | 16 kts | 91° |
| 2026-05-04 01:10 | 26.07559 | -80.14119 | 22 ft | 19 kts | 91° |
| 2026-05-04 01:10 | 26.07532 | -80.14000 | 20 ft | 15 kts | 149° |
| 2026-05-04 01:11 | 26.07443 | -80.13959 | 19 ft | 14 kts | 172° |
| 2026-05-04 01:11 | 26.07380 | -80.13959 | 19 ft | 5 kts | 180° |
| 2026-05-04 01:11 | 26.07355 | -80.13962 | 19 ft | 0 kts | 192° |
| 2026-05-04 01:12 | 26.07340 | -80.13971 | 20 ft | 5 kts | 218° |
| 2026-05-04 01:12 | 26.07332 | -80.13985 | 20 ft | 2 kts | 251° |
| 2026-05-04 01:12 | 26.07332 | -80.14000 | 20 ft | 2 kts | 268° |
| 2026-05-04 01:13 | 26.07331 | -80.14015 | 20 ft | 2 kts | 269° |
| 2026-05-04 01:13 | 26.07331 | -80.14018 | 20 ft | 0 kts | 268° |